sensor_id;sensor_type;location;lat;lon;timestamp;P1;durP1;ratioP1;P2;durP2;ratioP2
33740;SDS011;20065;48.380;10.892;2023-02-03T00:01:32;5.88;;;2.40;;
33740;SDS011;20065;48.380;10.892;2023-02-03T00:04:18;5.18;;;1.75;;
33740;SDS011;20065;48.380;10.892;2023-02-03T00:07:04;5.32;;;2.00;;
33740;SDS011;20065;48.380;10.892;2023-02-03T00:09:51;6.53;;;2.10;;
33740;SDS011;20065;48.380;10.892;2023-02-03T00:12:37;12.70;;;2.60;;
33740;SDS011;20065;48.380;10.892;2023-02-03T00:15:23;3.95;;;2.08;;
33740;SDS011;20065;48.380;10.892;2023-02-03T00:18:10;5.80;;;2.30;;
33740;SDS011;20065;48.380;10.892;2023-02-03T00:20:57;3.05;;;1.42;;
33740;SDS011;20065;48.380;10.892;2023-02-03T00:23:43;9.18;;;2.60;;
33740;SDS011;20065;48.380;10.892;2023-02-03T00:26:29;5.18;;;1.95;;
33740;SDS011;20065;48.380;10.892;2023-02-03T00:29:15;5.20;;;1.70;;
33740;SDS011;20065;48.380;10.892;2023-02-03T00:32:03;8.80;;;1.90;;
33740;SDS011;20065;48.380;10.892;2023-02-03T00:34:49;4.97;;;1.88;;
33740;SDS011;20065;48.380;10.892;2023-02-03T00:37:36;6.50;;;2.20;;
33740;SDS011;20065;48.380;10.892;2023-02-03T00:40:23;5.35;;;2.17;;
33740;SDS011;20065;48.380;10.892;2023-02-03T00:43:10;7.05;;;1.83;;
33740;SDS011;20065;48.380;10.892;2023-02-03T00:45:57;5.88;;;2.33;;
33740;SDS011;20065;48.380;10.892;2023-02-03T00:48:43;9.75;;;2.30;;
33740;SDS011;20065;48.380;10.892;2023-02-03T00:51:29;5.68;;;2.05;;
33740;SDS011;20065;48.380;10.892;2023-02-03T00:54:19;9.55;;;2.00;;
33740;SDS011;20065;48.380;10.892;2023-02-03T00:57:05;5.95;;;1.77;;
33740;SDS011;20065;48.380;10.892;2023-02-03T00:59:55;7.15;;;1.83;;
33740;SDS011;20065;48.380;10.892;2023-02-03T01:02:42;8.38;;;2.13;;
33740;SDS011;20065;48.380;10.892;2023-02-03T01:05:28;6.50;;;1.67;;
33740;SDS011;20065;48.380;10.892;2023-02-03T01:08:15;4.57;;;1.75;;
33740;SDS011;20065;48.380;10.892;2023-02-03T01:11:08;5.05;;;1.95;;
33740;SDS011;20065;48.380;10.892;2023-02-03T01:13:56;8.10;;;1.92;;
33740;SDS011;20065;48.380;10.892;2023-02-03T01:16:46;4.75;;;1.70;;
33740;SDS011;20065;48.380;10.892;2023-02-03T01:19:33;4.28;;;2.00;;
33740;SDS011;20065;48.380;10.892;2023-02-03T01:22:19;7.93;;;2.08;;
33740;SDS011;20065;48.380;10.892;2023-02-03T01:25:05;4.10;;;1.73;;
33740;SDS011;20065;48.380;10.892;2023-02-03T01:27:52;3.30;;;1.67;;
33740;SDS011;20065;48.380;10.892;2023-02-03T01:30:38;4.40;;;1.60;;
33740;SDS011;20065;48.380;10.892;2023-02-03T01:33:28;9.90;;;2.35;;
33740;SDS011;20065;48.380;10.892;2023-02-03T01:36:15;7.47;;;1.85;;
33740;SDS011;20065;48.380;10.892;2023-02-03T01:39:03;4.22;;;1.67;;
33740;SDS011;20065;48.380;10.892;2023-02-03T01:41:50;9.45;;;2.35;;
33740;SDS011;20065;48.380;10.892;2023-02-03T01:44:46;5.90;;;2.17;;
33740;SDS011;20065;48.380;10.892;2023-02-03T01:47:38;5.13;;;2.00;;
33740;SDS011;20065;48.380;10.892;2023-02-03T01:50:34;10.55;;;2.08;;
33740;SDS011;20065;48.380;10.892;2023-02-03T01:53:21;10.82;;;2.58;;
33740;SDS011;20065;48.380;10.892;2023-02-03T01:56:08;5.70;;;1.63;;
33740;SDS011;20065;48.380;10.892;2023-02-03T01:58:54;4.22;;;1.80;;
33740;SDS011;20065;48.380;10.892;2023-02-03T02:01:43;6.28;;;1.35;;
33740;SDS011;20065;48.380;10.892;2023-02-03T02:04:33;4.15;;;1.50;;
33740;SDS011;20065;48.380;10.892;2023-02-03T02:07:28;4.45;;;1.73;;
33740;SDS011;20065;48.380;10.892;2023-02-03T02:10:16;5.60;;;1.48;;
33740;SDS011;20065;48.380;10.892;2023-02-03T02:13:02;8.25;;;1.85;;
33740;SDS011;20065;48.380;10.892;2023-02-03T02:27:45;4.55;;;1.60;;
33740;SDS011;20065;48.380;10.892;2023-02-03T02:30:42;8.23;;;1.88;;
33740;SDS011;20065;48.380;10.892;2023-02-03T02:36:50;5.60;;;1.48;;
33740;SDS011;20065;48.380;10.892;2023-02-03T02:46:26;5.50;;;1.90;;
33740;SDS011;20065;48.380;10.892;2023-02-03T02:49:32;3.80;;;1.67;;
33740;SDS011;20065;48.380;10.892;2023-02-03T02:52:22;5.22;;;1.70;;
33740;SDS011;20065;48.380;10.892;2023-02-03T02:55:13;2.92;;;1.42;;
33740;SDS011;20065;48.380;10.892;2023-02-03T02:58:11;4.05;;;1.55;;
33740;SDS011;20065;48.380;10.892;2023-02-03T03:01:00;3.65;;;1.60;;
33740;SDS011;20065;48.380;10.892;2023-02-03T03:03:47;5.50;;;1.55;;
33740;SDS011;20065;48.380;10.892;2023-02-03T03:06:35;6.32;;;1.30;;
33740;SDS011;20065;48.380;10.892;2023-02-03T03:09:37;6.07;;;1.67;;
33740;SDS011;20065;48.380;10.892;2023-02-03T03:12:28;2.72;;;1.10;;
33740;SDS011;20065;48.380;10.892;2023-02-03T03:15:20;6.85;;;2.03;;
33740;SDS011;20065;48.380;10.892;2023-02-03T03:18:15;4.70;;;1.73;;
33740;SDS011;20065;48.380;10.892;2023-02-03T03:21:08;4.90;;;1.60;;
33740;SDS011;20065;48.380;10.892;2023-02-03T03:24:01;3.85;;;1.30;;
33740;SDS011;20065;48.380;10.892;2023-02-03T03:27:10;3.97;;;1.50;;
33740;SDS011;20065;48.380;10.892;2023-02-03T03:30:07;4.38;;;1.13;;
33740;SDS011;20065;48.380;10.892;2023-02-03T03:32:55;3.67;;;1.50;;
33740;SDS011;20065;48.380;10.892;2023-02-03T03:35:52;6.07;;;1.40;;
33740;SDS011;20065;48.380;10.892;2023-02-03T03:39:04;5.30;;;1.48;;
33740;SDS011;20065;48.380;10.892;2023-02-03T03:42:53;4.72;;;1.45;;
33740;SDS011;20065;48.380;10.892;2023-02-03T03:48:16;4.90;;;1.40;;
33740;SDS011;20065;48.380;10.892;2023-02-03T03:54:30;6.65;;;1.92;;
33740;SDS011;20065;48.380;10.892;2023-02-03T03:57:20;5.78;;;1.50;;
33740;SDS011;20065;48.380;10.892;2023-02-03T04:00:16;3.65;;;1.67;;
33740;SDS011;20065;48.380;10.892;2023-02-03T04:03:06;5.45;;;2.00;;
33740;SDS011;20065;48.380;10.892;2023-02-03T04:06:01;3.70;;;1.23;;
33740;SDS011;20065;48.380;10.892;2023-02-03T04:08:47;3.97;;;1.70;;
33740;SDS011;20065;48.380;10.892;2023-02-03T04:11:33;6.05;;;1.75;;
33740;SDS011;20065;48.380;10.892;2023-02-03T04:14:51;6.07;;;1.58;;
33740;SDS011;20065;48.380;10.892;2023-02-03T04:17:38;3.00;;;1.58;;
33740;SDS011;20065;48.380;10.892;2023-02-03T04:20:24;8.20;;;1.75;;
33740;SDS011;20065;48.380;10.892;2023-02-03T04:23:10;2.83;;;1.52;;
33740;SDS011;20065;48.380;10.892;2023-02-03T04:25:59;3.92;;;1.40;;
33740;SDS011;20065;48.380;10.892;2023-02-03T04:28:45;3.45;;;1.40;;
33740;SDS011;20065;48.380;10.892;2023-02-03T04:31:32;4.35;;;1.55;;
33740;SDS011;20065;48.380;10.892;2023-02-03T04:34:18;4.22;;;1.25;;
33740;SDS011;20065;48.380;10.892;2023-02-03T04:37:04;4.35;;;1.30;;
33740;SDS011;20065;48.380;10.892;2023-02-03T04:39:51;3.05;;;1.60;;
33740;SDS011;20065;48.380;10.892;2023-02-03T04:42:38;4.25;;;1.63;;
33740;SDS011;20065;48.380;10.892;2023-02-03T04:45:25;4.22;;;1.42;;
33740;SDS011;20065;48.380;10.892;2023-02-03T04:48:11;3.42;;;1.45;;
33740;SDS011;20065;48.380;10.892;2023-02-03T04:51:00;3.85;;;1.40;;
33740;SDS011;20065;48.380;10.892;2023-02-03T04:53:47;4.30;;;2.03;;
33740;SDS011;20065;48.380;10.892;2023-02-03T04:56:34;3.03;;;1.15;;
33740;SDS011;20065;48.380;10.892;2023-02-03T04:59:20;4.03;;;1.52;;
33740;SDS011;20065;48.380;10.892;2023-02-03T05:02:06;8.48;;;1.80;;
33740;SDS011;20065;48.380;10.892;2023-02-03T05:04:52;5.68;;;1.90;;
33740;SDS011;20065;48.380;10.892;2023-02-03T05:07:39;2.50;;;1.38;;
33740;SDS011;20065;48.380;10.892;2023-02-03T05:10:25;7.50;;;1.60;;
33740;SDS011;20065;48.380;10.892;2023-02-03T05:13:11;5.85;;;1.65;;
33740;SDS011;20065;48.380;10.892;2023-02-03T05:15:57;5.45;;;1.55;;
33740;SDS011;20065;48.380;10.892;2023-02-03T05:18:44;4.38;;;1.50;;
33740;SDS011;20065;48.380;10.892;2023-02-03T05:21:30;4.88;;;1.60;;
33740;SDS011;20065;48.380;10.892;2023-02-03T05:24:16;4.60;;;1.95;;
33740;SDS011;20065;48.380;10.892;2023-02-03T05:27:02;4.32;;;1.55;;
33740;SDS011;20065;48.380;10.892;2023-02-03T05:29:49;5.75;;;1.35;;
33740;SDS011;20065;48.380;10.892;2023-02-03T05:32:35;5.47;;;1.63;;
33740;SDS011;20065;48.380;10.892;2023-02-03T05:35:21;4.35;;;2.08;;
33740;SDS011;20065;48.380;10.892;2023-02-03T05:38:08;4.07;;;1.42;;
33740;SDS011;20065;48.380;10.892;2023-02-03T05:40:54;11.13;;;1.20;;
33740;SDS011;20065;48.380;10.892;2023-02-03T05:43:59;10.63;;;1.83;;
33740;SDS011;20065;48.380;10.892;2023-02-03T05:46:46;5.70;;;1.30;;
33740;SDS011;20065;48.380;10.892;2023-02-03T05:49:33;5.75;;;1.40;;
33740;SDS011;20065;48.380;10.892;2023-02-03T05:52:19;6.35;;;1.55;;
33740;SDS011;20065;48.380;10.892;2023-02-03T05:55:05;3.40;;;1.23;;
33740;SDS011;20065;48.380;10.892;2023-02-03T05:57:52;4.95;;;1.30;;
33740;SDS011;20065;48.380;10.892;2023-02-03T06:00:39;2.97;;;1.10;;
33740;SDS011;20065;48.380;10.892;2023-02-03T06:03:25;7.88;;;1.63;;
33740;SDS011;20065;48.380;10.892;2023-02-03T06:06:11;3.03;;;1.35;;
33740;SDS011;20065;48.380;10.892;2023-02-03T06:08:58;3.97;;;1.30;;
33740;SDS011;20065;48.380;10.892;2023-02-03T06:11:49;7.28;;;1.52;;
33740;SDS011;20065;48.380;10.892;2023-02-03T06:14:35;7.80;;;1.67;;
33740;SDS011;20065;48.380;10.892;2023-02-03T06:17:21;6.45;;;1.30;;
33740;SDS011;20065;48.380;10.892;2023-02-03T06:20:07;3.58;;;1.42;;
33740;SDS011;20065;48.380;10.892;2023-02-03T06:22:56;5.75;;;1.92;;
33740;SDS011;20065;48.380;10.892;2023-02-03T06:25:42;8.85;;;2.22;;
33740;SDS011;20065;48.380;10.892;2023-02-03T06:28:28;7.15;;;1.65;;
33740;SDS011;20065;48.380;10.892;2023-02-03T06:31:14;5.03;;;1.67;;
33740;SDS011;20065;48.380;10.892;2023-02-03T06:34:01;4.95;;;1.45;;
33740;SDS011;20065;48.380;10.892;2023-02-03T06:36:47;4.13;;;1.73;;
33740;SDS011;20065;48.380;10.892;2023-02-03T06:39:33;3.75;;;1.65;;
33740;SDS011;20065;48.380;10.892;2023-02-03T06:42:20;3.28;;;1.25;;
33740;SDS011;20065;48.380;10.892;2023-02-03T06:45:06;4.03;;;1.55;;
33740;SDS011;20065;48.380;10.892;2023-02-03T06:47:53;6.10;;;1.50;;
33740;SDS011;20065;48.380;10.892;2023-02-03T06:50:39;3.13;;;1.20;;
33740;SDS011;20065;48.380;10.892;2023-02-03T06:53:25;7.22;;;1.40;;
33740;SDS011;20065;48.380;10.892;2023-02-03T06:56:12;6.65;;;1.90;;
33740;SDS011;20065;48.380;10.892;2023-02-03T06:58:58;4.57;;;1.65;;
33740;SDS011;20065;48.380;10.892;2023-02-03T07:01:44;7.00;;;1.83;;
33740;SDS011;20065;48.380;10.892;2023-02-03T07:04:30;3.03;;;1.55;;
33740;SDS011;20065;48.380;10.892;2023-02-03T07:07:19;5.68;;;1.38;;
33740;SDS011;20065;48.380;10.892;2023-02-03T07:10:05;4.00;;;1.83;;
33740;SDS011;20065;48.380;10.892;2023-02-03T07:12:52;5.60;;;2.05;;
33740;SDS011;20065;48.380;10.892;2023-02-03T07:15:38;5.38;;;1.90;;
33740;SDS011;20065;48.380;10.892;2023-02-03T07:18:24;6.13;;;2.03;;
33740;SDS011;20065;48.380;10.892;2023-02-03T07:21:11;6.07;;;1.67;;
33740;SDS011;20065;48.380;10.892;2023-02-03T07:23:58;5.60;;;1.58;;
33740;SDS011;20065;48.380;10.892;2023-02-03T07:26:44;5.82;;;1.85;;
33740;SDS011;20065;48.380;10.892;2023-02-03T07:29:30;4.60;;;1.52;;
33740;SDS011;20065;48.380;10.892;2023-02-03T07:32:17;7.15;;;1.80;;
33740;SDS011;20065;48.380;10.892;2023-02-03T07:35:03;3.28;;;1.27;;
33740;SDS011;20065;48.380;10.892;2023-02-03T07:37:49;7.25;;;1.65;;
33740;SDS011;20065;48.380;10.892;2023-02-03T07:40:35;3.90;;;1.50;;
33740;SDS011;20065;48.380;10.892;2023-02-03T07:43:22;3.35;;;1.40;;
33740;SDS011;20065;48.380;10.892;2023-02-03T07:46:08;4.85;;;1.17;;
33740;SDS011;20065;48.380;10.892;2023-02-03T07:48:54;4.43;;;1.40;;
33740;SDS011;20065;48.380;10.892;2023-02-03T07:51:40;3.80;;;1.60;;
33740;SDS011;20065;48.380;10.892;2023-02-03T07:54:26;3.97;;;1.30;;
33740;SDS011;20065;48.380;10.892;2023-02-03T07:57:14;3.88;;;1.20;;
33740;SDS011;20065;48.380;10.892;2023-02-03T08:00:00;4.20;;;1.58;;
33740;SDS011;20065;48.380;10.892;2023-02-03T08:02:46;3.75;;;1.40;;
33740;SDS011;20065;48.380;10.892;2023-02-03T08:05:32;2.60;;;1.20;;
33740;SDS011;20065;48.380;10.892;2023-02-03T08:08:19;3.00;;;1.10;;
33740;SDS011;20065;48.380;10.892;2023-02-03T08:11:05;6.88;;;1.40;;
33740;SDS011;20065;48.380;10.892;2023-02-03T08:13:51;2.60;;;0.90;;
33740;SDS011;20065;48.380;10.892;2023-02-03T08:16:37;2.40;;;1.00;;
33740;SDS011;20065;48.380;10.892;2023-02-03T08:19:23;2.95;;;1.00;;
33740;SDS011;20065;48.380;10.892;2023-02-03T08:22:10;5.03;;;1.40;;
33740;SDS011;20065;48.380;10.892;2023-02-03T08:25:00;5.57;;;1.30;;
33740;SDS011;20065;48.380;10.892;2023-02-03T08:27:46;6.55;;;1.60;;
33740;SDS011;20065;48.380;10.892;2023-02-03T08:30:32;3.03;;;1.50;;
33740;SDS011;20065;48.380;10.892;2023-02-03T08:33:19;3.95;;;1.27;;
33740;SDS011;20065;48.380;10.892;2023-02-03T08:36:05;3.53;;;1.08;;
33740;SDS011;20065;48.380;10.892;2023-02-03T08:38:52;4.13;;;1.27;;
33740;SDS011;20065;48.380;10.892;2023-02-03T08:41:38;5.97;;;1.10;;
33740;SDS011;20065;48.380;10.892;2023-02-03T08:44:24;5.20;;;1.35;;
33740;SDS011;20065;48.380;10.892;2023-02-03T08:47:10;2.17;;;0.82;;
33740;SDS011;20065;48.380;10.892;2023-02-03T08:49:57;2.70;;;0.95;;
33740;SDS011;20065;48.380;10.892;2023-02-03T08:52:43;2.70;;;1.10;;
33740;SDS011;20065;48.380;10.892;2023-02-03T08:55:29;3.35;;;1.15;;
33740;SDS011;20065;48.380;10.892;2023-02-03T08:58:15;2.42;;;0.88;;
33740;SDS011;20065;48.380;10.892;2023-02-03T09:01:07;2.88;;;0.93;;
33740;SDS011;20065;48.380;10.892;2023-02-03T09:03:55;6.38;;;1.83;;
33740;SDS011;20065;48.380;10.892;2023-02-03T09:06:41;3.78;;;1.45;;
33740;SDS011;20065;48.380;10.892;2023-02-03T09:09:28;3.55;;;1.52;;
33740;SDS011;20065;48.380;10.892;2023-02-03T09:12:15;3.13;;;1.10;;
33740;SDS011;20065;48.380;10.892;2023-02-03T09:15:02;3.50;;;1.30;;
33740;SDS011;20065;48.380;10.892;2023-02-03T09:17:48;4.18;;;1.20;;
33740;SDS011;20065;48.380;10.892;2023-02-03T09:20:34;6.95;;;2.42;;
33740;SDS011;20065;48.380;10.892;2023-02-03T09:23:21;3.90;;;1.40;;
33740;SDS011;20065;48.380;10.892;2023-02-03T09:26:07;5.80;;;1.52;;
33740;SDS011;20065;48.380;10.892;2023-02-03T09:28:55;3.30;;;1.20;;
33740;SDS011;20065;48.380;10.892;2023-02-03T09:31:41;3.47;;;1.20;;
33740;SDS011;20065;48.380;10.892;2023-02-03T09:34:28;4.28;;;1.38;;
33740;SDS011;20065;48.380;10.892;2023-02-03T09:37:14;3.25;;;1.15;;
33740;SDS011;20065;48.380;10.892;2023-02-03T09:40:00;4.22;;;1.42;;
33740;SDS011;20065;48.380;10.892;2023-02-03T09:45:42;4.15;;;1.30;;
33740;SDS011;20065;48.380;10.892;2023-02-03T09:48:31;4.32;;;2.05;;
33740;SDS011;20065;48.380;10.892;2023-02-03T09:51:23;5.70;;;1.25;;
33740;SDS011;20065;48.380;10.892;2023-02-03T09:57:26;4.95;;;1.20;;
33740;SDS011;20065;48.380;10.892;2023-02-03T10:00:21;4.22;;;1.33;;
33740;SDS011;20065;48.380;10.892;2023-02-03T10:03:31;4.80;;;1.25;;
33740;SDS011;20065;48.380;10.892;2023-02-03T10:06:35;6.10;;;1.50;;
33740;SDS011;20065;48.380;10.892;2023-02-03T10:18:39;3.30;;;1.40;;
33740;SDS011;20065;48.380;10.892;2023-02-03T10:24:18;3.53;;;1.77;;
33740;SDS011;20065;48.380;10.892;2023-02-03T10:27:16;4.38;;;1.50;;
33740;SDS011;20065;48.380;10.892;2023-02-03T10:33:11;2.63;;;1.40;;
33740;SDS011;20065;48.380;10.892;2023-02-03T10:36:19;4.05;;;1.77;;
33740;SDS011;20065;48.380;10.892;2023-02-03T10:39:14;4.85;;;1.42;;
33740;SDS011;20065;48.380;10.892;2023-02-03T10:42:07;6.63;;;1.60;;
33740;SDS011;20065;48.380;10.892;2023-02-03T10:44:56;4.07;;;1.38;;
33740;SDS011;20065;48.380;10.892;2023-02-03T10:47:47;3.38;;;1.20;;
33740;SDS011;20065;48.380;10.892;2023-02-03T10:50:37;5.10;;;2.10;;
33740;SDS011;20065;48.380;10.892;2023-02-03T10:53:33;6.15;;;1.70;;
33740;SDS011;20065;48.380;10.892;2023-02-03T10:56:21;10.40;;;2.00;;
33740;SDS011;20065;48.380;10.892;2023-02-03T10:59:21;4.82;;;1.52;;
33740;SDS011;20065;48.380;10.892;2023-02-03T11:02:24;4.45;;;1.50;;
33740;SDS011;20065;48.380;10.892;2023-02-03T11:05:21;3.80;;;1.20;;
33740;SDS011;20065;48.380;10.892;2023-02-03T11:08:14;6.13;;;1.90;;
33740;SDS011;20065;48.380;10.892;2023-02-03T11:11:01;6.00;;;1.40;;
33740;SDS011;20065;48.380;10.892;2023-02-03T11:13:55;10.73;;;2.58;;
33740;SDS011;20065;48.380;10.892;2023-02-03T11:16:59;3.60;;;1.60;;
33740;SDS011;20065;48.380;10.892;2023-02-03T11:19:52;4.00;;;1.60;;
33740;SDS011;20065;48.380;10.892;2023-02-03T11:22:43;3.75;;;1.60;;
33740;SDS011;20065;48.380;10.892;2023-02-03T11:25:31;4.40;;;1.48;;
33740;SDS011;20065;48.380;10.892;2023-02-03T11:28:18;8.38;;;1.77;;
33740;SDS011;20065;48.380;10.892;2023-02-03T11:31:08;2.55;;;1.30;;
33740;SDS011;20065;48.380;10.892;2023-02-03T11:34:15;5.07;;;1.42;;
33740;SDS011;20065;48.380;10.892;2023-02-03T11:43:18;3.10;;;1.23;;
33740;SDS011;20065;48.380;10.892;2023-02-03T11:46:07;3.92;;;1.48;;
33740;SDS011;20065;48.380;10.892;2023-02-03T11:52:40;3.15;;;1.33;;
33740;SDS011;20065;48.380;10.892;2023-02-03T11:55:46;2.78;;;0.95;;
33740;SDS011;20065;48.380;10.892;2023-02-03T11:59:03;2.58;;;1.25;;
33740;SDS011;20065;48.380;10.892;2023-02-03T12:29:13;2.25;;;1.00;;
33740;SDS011;20065;48.380;10.892;2023-02-03T12:32:14;3.45;;;1.00;;
33740;SDS011;20065;48.380;10.892;2023-02-03T12:35:38;3.33;;;1.10;;
33740;SDS011;20065;48.380;10.892;2023-02-03T12:38:41;4.60;;;1.30;;
33740;SDS011;20065;48.380;10.892;2023-02-03T12:41:51;2.33;;;0.90;;
33740;SDS011;20065;48.380;10.892;2023-02-03T12:47:45;2.83;;;0.93;;
33740;SDS011;20065;48.380;10.892;2023-02-03T12:50:50;4.15;;;1.00;;
33740;SDS011;20065;48.380;10.892;2023-02-03T12:53:46;3.72;;;1.25;;
33740;SDS011;20065;48.380;10.892;2023-02-03T12:56:39;2.53;;;1.00;;
33740;SDS011;20065;48.380;10.892;2023-02-03T12:59:28;4.25;;;0.95;;
33740;SDS011;20065;48.380;10.892;2023-02-03T13:02:21;3.03;;;1.00;;
33740;SDS011;20065;48.380;10.892;2023-02-03T13:05:23;2.60;;;0.80;;
33740;SDS011;20065;48.380;10.892;2023-02-03T13:08:34;2.95;;;0.80;;
33740;SDS011;20065;48.380;10.892;2023-02-03T13:11:32;2.92;;;1.02;;
33740;SDS011;20065;48.380;10.892;2023-02-03T13:14:43;3.70;;;1.23;;
33740;SDS011;20065;48.380;10.892;2023-02-03T13:17:31;3.22;;;0.93;;
33740;SDS011;20065;48.380;10.892;2023-02-03T13:20:25;2.72;;;1.20;;
33740;SDS011;20065;48.380;10.892;2023-02-03T13:23:15;3.08;;;0.90;;
33740;SDS011;20065;48.380;10.892;2023-02-03T13:32:15;2.97;;;0.95;;
33740;SDS011;20065;48.380;10.892;2023-02-03T13:35:25;4.47;;;1.00;;
33740;SDS011;20065;48.380;10.892;2023-02-03T13:44:27;4.78;;;1.20;;
33740;SDS011;20065;48.380;10.892;2023-02-03T13:47:20;3.38;;;0.85;;
33740;SDS011;20065;48.380;10.892;2023-02-03T13:50:20;3.78;;;1.00;;
33740;SDS011;20065;48.380;10.892;2023-02-03T13:53:16;3.60;;;1.10;;
33740;SDS011;20065;48.380;10.892;2023-02-03T13:56:06;4.95;;;0.98;;
33740;SDS011;20065;48.380;10.892;2023-02-03T13:58:58;2.10;;;0.80;;
33740;SDS011;20065;48.380;10.892;2023-02-03T14:01:45;5.20;;;0.95;;
33740;SDS011;20065;48.380;10.892;2023-02-03T14:10:22;2.35;;;0.80;;
33740;SDS011;20065;48.380;10.892;2023-02-03T14:13:27;3.35;;;1.02;;
33740;SDS011;20065;48.380;10.892;2023-02-03T14:16:23;2.45;;;0.90;;
33740;SDS011;20065;48.380;10.892;2023-02-03T14:19:10;2.50;;;0.90;;
33740;SDS011;20065;48.380;10.892;2023-02-03T14:22:06;2.20;;;0.80;;
33740;SDS011;20065;48.380;10.892;2023-02-03T14:25:03;2.10;;;0.70;;
33740;SDS011;20065;48.380;10.892;2023-02-03T14:28:44;1.90;;;0.70;;
33740;SDS011;20065;48.380;10.892;2023-02-03T14:31:39;3.72;;;0.90;;
33740;SDS011;20065;48.380;10.892;2023-02-03T14:34:48;4.00;;;1.05;;
33740;SDS011;20065;48.380;10.892;2023-02-03T14:37:35;2.70;;;0.80;;
33740;SDS011;20065;48.380;10.892;2023-02-03T14:43:49;2.50;;;0.90;;
33740;SDS011;20065;48.380;10.892;2023-02-03T14:56:08;2.45;;;1.15;;
33740;SDS011;20065;48.380;10.892;2023-02-03T14:59:12;2.95;;;0.80;;
33740;SDS011;20065;48.380;10.892;2023-02-03T15:04:48;2.13;;;0.80;;
33740;SDS011;20065;48.380;10.892;2023-02-03T15:07:39;2.67;;;1.15;;
33740;SDS011;20065;48.380;10.892;2023-02-03T15:10:41;2.45;;;1.00;;
33740;SDS011;20065;48.380;10.892;2023-02-03T15:13:30;3.40;;;0.90;;
33740;SDS011;20065;48.380;10.892;2023-02-03T15:16:20;3.03;;;1.20;;
33740;SDS011;20065;48.380;10.892;2023-02-03T15:19:16;2.80;;;1.00;;
33740;SDS011;20065;48.380;10.892;2023-02-03T15:25:15;4.25;;;1.00;;
33740;SDS011;20065;48.380;10.892;2023-02-03T15:28:13;2.80;;;0.95;;
33740;SDS011;20065;48.380;10.892;2023-02-03T15:31:05;5.32;;;1.02;;
33740;SDS011;20065;48.380;10.892;2023-02-03T15:34:06;2.20;;;0.70;;
33740;SDS011;20065;48.380;10.892;2023-02-03T15:37:16;2.53;;;0.90;;
33740;SDS011;20065;48.380;10.892;2023-02-03T15:46:36;2.97;;;0.98;;
33740;SDS011;20065;48.380;10.892;2023-02-03T15:49:26;2.92;;;0.85;;
33740;SDS011;20065;48.380;10.892;2023-02-03T15:52:18;2.20;;;0.60;;
33740;SDS011;20065;48.380;10.892;2023-02-03T15:55:17;2.22;;;0.75;;
33740;SDS011;20065;48.380;10.892;2023-02-03T15:58:27;4.55;;;0.77;;
33740;SDS011;20065;48.380;10.892;2023-02-03T16:01:18;3.08;;;0.93;;
33740;SDS011;20065;48.380;10.892;2023-02-03T16:04:08;2.60;;;0.80;;
33740;SDS011;20065;48.380;10.892;2023-02-03T16:06:56;3.47;;;0.80;;
33740;SDS011;20065;48.380;10.892;2023-02-03T16:09:43;2.13;;;0.70;;
33740;SDS011;20065;48.380;10.892;2023-02-03T16:12:31;3.97;;;1.10;;
33740;SDS011;20065;48.380;10.892;2023-02-03T16:15:21;2.78;;;1.00;;
33740;SDS011;20065;48.380;10.892;2023-02-03T16:18:15;3.20;;;1.15;;
33740;SDS011;20065;48.380;10.892;2023-02-03T16:21:03;2.90;;;1.27;;
33740;SDS011;20065;48.380;10.892;2023-02-03T16:23:50;9.30;;;1.20;;
33740;SDS011;20065;48.380;10.892;2023-02-03T16:26:36;2.70;;;1.00;;
33740;SDS011;20065;48.380;10.892;2023-02-03T16:29:27;3.97;;;1.20;;
33740;SDS011;20065;48.380;10.892;2023-02-03T16:32:32;3.15;;;1.10;;
33740;SDS011;20065;48.380;10.892;2023-02-03T16:35:37;2.65;;;1.25;;
33740;SDS011;20065;48.380;10.892;2023-02-03T16:38:49;3.30;;;1.17;;
33740;SDS011;20065;48.380;10.892;2023-02-03T16:41:56;3.47;;;1.40;;
33740;SDS011;20065;48.380;10.892;2023-02-03T16:45:02;2.63;;;0.90;;
33740;SDS011;20065;48.380;10.892;2023-02-03T16:48:13;2.47;;;0.90;;
33740;SDS011;20065;48.380;10.892;2023-02-03T16:51:18;3.45;;;1.00;;
33740;SDS011;20065;48.380;10.892;2023-02-03T16:54:08;2.30;;;0.90;;
33740;SDS011;20065;48.380;10.892;2023-02-03T16:56:55;2.45;;;1.00;;
33740;SDS011;20065;48.380;10.892;2023-02-03T16:59:49;2.90;;;1.50;;
33740;SDS011;20065;48.380;10.892;2023-02-03T17:02:41;3.67;;;1.40;;
33740;SDS011;20065;48.380;10.892;2023-02-03T17:05:27;3.28;;;1.33;;
33740;SDS011;20065;48.380;10.892;2023-02-03T17:08:16;2.30;;;1.15;;
33740;SDS011;20065;48.380;10.892;2023-02-03T17:11:06;2.60;;;1.08;;
33740;SDS011;20065;48.380;10.892;2023-02-03T17:13:56;3.40;;;1.00;;
33740;SDS011;20065;48.380;10.892;2023-02-03T17:16:42;2.22;;;0.90;;
33740;SDS011;20065;48.380;10.892;2023-02-03T17:19:29;2.85;;;1.15;;
33740;SDS011;20065;48.380;10.892;2023-02-03T17:22:15;2.63;;;0.90;;
33740;SDS011;20065;48.380;10.892;2023-02-03T17:25:02;2.00;;;0.80;;
33740;SDS011;20065;48.380;10.892;2023-02-03T17:27:48;4.15;;;1.02;;
33740;SDS011;20065;48.380;10.892;2023-02-03T17:30:34;2.33;;;0.93;;
33740;SDS011;20065;48.380;10.892;2023-02-03T17:33:21;2.40;;;1.10;;
33740;SDS011;20065;48.380;10.892;2023-02-03T17:36:11;2.35;;;0.95;;
33740;SDS011;20065;48.380;10.892;2023-02-03T17:38:59;5.15;;;1.00;;
33740;SDS011;20065;48.380;10.892;2023-02-03T17:41:46;2.10;;;0.90;;
33740;SDS011;20065;48.380;10.892;2023-02-03T17:44:33;2.53;;;0.90;;
33740;SDS011;20065;48.380;10.892;2023-02-03T17:47:20;4.38;;;1.23;;
33740;SDS011;20065;48.380;10.892;2023-02-03T17:50:06;2.53;;;1.08;;
33740;SDS011;20065;48.380;10.892;2023-02-03T17:52:52;2.47;;;1.20;;
33740;SDS011;20065;48.380;10.892;2023-02-03T17:55:38;2.58;;;0.80;;
33740;SDS011;20065;48.380;10.892;2023-02-03T17:58:25;2.00;;;0.77;;
33740;SDS011;20065;48.380;10.892;2023-02-03T18:01:15;2.80;;;1.13;;
33740;SDS011;20065;48.380;10.892;2023-02-03T18:04:03;2.50;;;0.90;;
33740;SDS011;20065;48.380;10.892;2023-02-03T18:06:53;2.45;;;0.88;;
33740;SDS011;20065;48.380;10.892;2023-02-03T18:09:39;2.30;;;1.00;;
33740;SDS011;20065;48.380;10.892;2023-02-03T18:12:26;4.10;;;2.00;;
33740;SDS011;20065;48.380;10.892;2023-02-03T18:15:12;2.85;;;1.00;;
33740;SDS011;20065;48.380;10.892;2023-02-03T18:17:58;4.00;;;1.23;;
33740;SDS011;20065;48.380;10.892;2023-02-03T18:20:44;3.33;;;1.27;;
33740;SDS011;20065;48.380;10.892;2023-02-03T18:23:31;2.50;;;1.10;;
33740;SDS011;20065;48.380;10.892;2023-02-03T18:26:18;3.25;;;1.50;;
33740;SDS011;20065;48.380;10.892;2023-02-03T18:29:05;3.90;;;1.65;;
33740;SDS011;20065;48.380;10.892;2023-02-03T18:31:51;4.25;;;1.92;;
33740;SDS011;20065;48.380;10.892;2023-02-03T18:34:38;5.30;;;1.60;;
33740;SDS011;20065;48.380;10.892;2023-02-03T18:37:24;4.13;;;1.20;;
33740;SDS011;20065;48.380;10.892;2023-02-03T18:40:10;4.30;;;1.48;;
33740;SDS011;20065;48.380;10.892;2023-02-03T18:42:57;2.60;;;0.95;;
33740;SDS011;20065;48.380;10.892;2023-02-03T18:45:43;3.25;;;1.05;;
33740;SDS011;20065;48.380;10.892;2023-02-03T18:48:29;2.45;;;1.15;;
33740;SDS011;20065;48.380;10.892;2023-02-03T18:51:16;3.25;;;1.20;;
33740;SDS011;20065;48.380;10.892;2023-02-03T18:54:04;3.03;;;0.90;;
33740;SDS011;20065;48.380;10.892;2023-02-03T18:56:50;3.00;;;1.10;;
33740;SDS011;20065;48.380;10.892;2023-02-03T18:59:36;2.85;;;1.27;;
33740;SDS011;20065;48.380;10.892;2023-02-03T19:02:22;2.92;;;1.15;;
33740;SDS011;20065;48.380;10.892;2023-02-03T19:05:10;2.88;;;1.40;;